sensor_id;sensor_type;location;lat;lon;timestamp;P1;P2;P0
81998;PMS5003;71598;46.516;-122.928;2023-10-13T00:02:15;45;45;
81998;PMS5003;71598;46.516;-122.928;2023-10-13T00:04:41;44;42;
81998;PMS5003;71598;46.516;-122.928;2023-10-13T00:07:07;39;39;
81998;PMS5003;71598;46.516;-122.928;2023-10-13T00:09:32;49;49;
81998;PMS5003;71598;46.516;-122.928;2023-10-13T00:11:57;45;44;
81998;PMS5003;71598;46.516;-122.928;2023-10-13T00:14:22;50;49;
81998;PMS5003;71598;46.516;-122.928;2023-10-13T00:16:48;46;45;
81998;PMS5003;71598;46.516;-122.928;2023-10-13T00:19:13;46;44;
81998;PMS5003;71598;46.516;-122.928;2023-10-13T00:21:40;51;51;
81998;PMS5003;71598;46.516;-122.928;2023-10-13T00:24:04;50;48;
81998;PMS5003;71598;46.516;-122.928;2023-10-13T00:26:29;47;46;
81998;PMS5003;71598;46.516;-122.928;2023-10-13T00:28:54;51;50;
81998;PMS5003;71598;46.516;-122.928;2023-10-13T00:31:19;52;52;
81998;PMS5003;71598;46.516;-122.928;2023-10-13T00:33:44;61;60;
81998;PMS5003;71598;46.516;-122.928;2023-10-13T00:36:10;52;50;
81998;PMS5003;71598;46.516;-122.928;2023-10-13T00:38:35;53;53;
81998;PMS5003;71598;46.516;-122.928;2023-10-13T00:41:01;57;55;
81998;PMS5003;71598;46.516;-122.928;2023-10-13T00:43:26;56;56;
81998;PMS5003;71598;46.516;-122.928;2023-10-13T00:45:53;53;53;
81998;PMS5003;71598;46.516;-122.928;2023-10-13T00:48:17;58;56;
81998;PMS5003;71598;46.516;-122.928;2023-10-13T00:50:42;55;55;
81998;PMS5003;71598;46.516;-122.928;2023-10-13T00:53:08;65;63;
81998;PMS5003;71598;46.516;-122.928;2023-10-13T00:55:34;59;59;
81998;PMS5003;71598;46.516;-122.928;2023-10-13T00:58:01;57;56;
81998;PMS5003;71598;46.516;-122.928;2023-10-13T01:00:24;63;63;
81998;PMS5003;71598;46.516;-122.928;2023-10-13T01:02:49;59;58;
81998;PMS5003;71598;46.516;-122.928;2023-10-13T01:05:15;66;64;
81998;PMS5003;71598;46.516;-122.928;2023-10-13T01:07:41;65;63;
81998;PMS5003;71598;46.516;-122.928;2023-10-13T01:10:09;60;59;
81998;PMS5003;71598;46.516;-122.928;2023-10-13T01:12:31;74;70;
81998;PMS5003;71598;46.516;-122.928;2023-10-13T01:14:56;69;67;
81998;PMS5003;71598;46.516;-122.928;2023-10-13T01:17:21;61;60;
81998;PMS5003;71598;46.516;-122.928;2023-10-13T01:19:47;67;66;
81998;PMS5003;71598;46.516;-122.928;2023-10-13T01:22:13;72;71;
81998;PMS5003;71598;46.516;-122.928;2023-10-13T01:24:38;63;63;
81998;PMS5003;71598;46.516;-122.928;2023-10-13T01:27:03;71;71;
81998;PMS5003;71598;46.516;-122.928;2023-10-13T01:29:29;78;77;
81998;PMS5003;71598;46.516;-122.928;2023-10-13T01:31:54;73;70;
81998;PMS5003;71598;46.516;-122.928;2023-10-13T01:34:20;79;79;
81998;PMS5003;71598;46.516;-122.928;2023-10-13T01:36:45;96;93;
81998;PMS5003;71598;46.516;-122.928;2023-10-13T01:39:10;100;98;
81998;PMS5003;71598;46.516;-122.928;2023-10-13T01:41:36;110;107;
81998;PMS5003;71598;46.516;-122.928;2023-10-13T01:44:01;115;112;
81998;PMS5003;71598;46.516;-122.928;2023-10-13T01:46:27;114;109;
81998;PMS5003;71598;46.516;-122.928;2023-10-13T01:48:53;118;112;
81998;PMS5003;71598;46.516;-122.928;2023-10-13T01:51:18;113;112;
81998;PMS5003;71598;46.516;-122.928;2023-10-13T01:53:44;112;106;
81998;PMS5003;71598;46.516;-122.928;2023-10-13T01:56:11;116;114;
81998;PMS5003;71598;46.516;-122.928;2023-10-13T01:58:36;116;111;
81998;PMS5003;71598;46.516;-122.928;2023-10-13T02:01:01;127;123;
81998;PMS5003;71598;46.516;-122.928;2023-10-13T02:03:27;118;115;
81998;PMS5003;71598;46.516;-122.928;2023-10-13T02:05:51;134;130;
81998;PMS5003;71598;46.516;-122.928;2023-10-13T02:08:19;125;123;
81998;PMS5003;71598;46.516;-122.928;2023-10-13T02:10:43;135;132;
81998;PMS5003;71598;46.516;-122.928;2023-10-13T02:13:07;125;123;
81998;PMS5003;71598;46.516;-122.928;2023-10-13T02:15:33;135;130;
81998;PMS5003;71598;46.516;-122.928;2023-10-13T02:17:58;133;128;
81998;PMS5003;71598;46.516;-122.928;2023-10-13T02:20:23;133;126;
81998;PMS5003;71598;46.516;-122.928;2023-10-13T02:22:49;141;135;
81998;PMS5003;71598;46.516;-122.928;2023-10-13T02:25:15;131;128;
81998;PMS5003;71598;46.516;-122.928;2023-10-13T02:27:40;125;121;
81998;PMS5003;71598;46.516;-122.928;2023-10-13T02:30:06;131;128;
81998;PMS5003;71598;46.516;-122.928;2023-10-13T02:32:30;143;142;
81998;PMS5003;71598;46.516;-122.928;2023-10-13T02:34:56;129;126;
81998;PMS5003;71598;46.516;-122.928;2023-10-13T02:37:22;137;133;
81998;PMS5003;71598;46.516;-122.928;2023-10-13T02:39:47;136;129;
81998;PMS5003;71598;46.516;-122.928;2023-10-13T02:42:13;141;138;
81998;PMS5003;71598;46.516;-122.928;2023-10-13T02:44:38;124;122;
81998;PMS5003;71598;46.516;-122.928;2023-10-13T02:47:03;133;130;
81998;PMS5003;71598;46.516;-122.928;2023-10-13T02:49:29;145;138;
81998;PMS5003;71598;46.516;-122.928;2023-10-13T02:51:55;128;124;
81998;PMS5003;71598;46.516;-122.928;2023-10-13T02:54:20;143;141;
81998;PMS5003;71598;46.516;-122.928;2023-10-13T02:56:45;131;130;
81998;PMS5003;71598;46.516;-122.928;2023-10-13T02:59:10;128;126;
81998;PMS5003;71598;46.516;-122.928;2023-10-13T03:01:36;132;132;
81998;PMS5003;71598;46.516;-122.928;2023-10-13T03:04:02;137;129;
81998;PMS5003;71598;46.516;-122.928;2023-10-13T03:06:27;134;130;
81998;PMS5003;71598;46.516;-122.928;2023-10-13T03:08:54;134;129;
81998;PMS5003;71598;46.516;-122.928;2023-10-13T03:11:18;125;120;
81998;PMS5003;71598;46.516;-122.928;2023-10-13T03:13:43;144;138;
81998;PMS5003;71598;46.516;-122.928;2023-10-13T03:16:12;136;132;
81998;PMS5003;71598;46.516;-122.928;2023-10-13T03:18:34;133;129;
81998;PMS5003;71598;46.516;-122.928;2023-10-13T03:21:04;136;130;
81998;PMS5003;71598;46.516;-122.928;2023-10-13T03:23:25;133;129;
81998;PMS5003;71598;46.516;-122.928;2023-10-13T03:25:51;133;126;
81998;PMS5003;71598;46.516;-122.928;2023-10-13T03:28:16;132;127;
81998;PMS5003;71598;46.516;-122.928;2023-10-13T03:30:42;135;135;
81998;PMS5003;71598;46.516;-122.928;2023-10-13T03:33:08;123;123;
81998;PMS5003;71598;46.516;-122.928;2023-10-13T03:35:33;127;123;
81998;PMS5003;71598;46.516;-122.928;2023-10-13T03:37:58;128;122;
81998;PMS5003;71598;46.516;-122.928;2023-10-13T03:40:23;133;129;
81998;PMS5003;71598;46.516;-122.928;2023-10-13T03:42:49;120;117;
81998;PMS5003;71598;46.516;-122.928;2023-10-13T03:45:14;134;127;
81998;PMS5003;71598;46.516;-122.928;2023-10-13T03:47:41;157;147;
81998;PMS5003;71598;46.516;-122.928;2023-10-13T03:50:05;150;148;
81998;PMS5003;71598;46.516;-122.928;2023-10-13T03:52:31;142;139;
81998;PMS5003;71598;46.516;-122.928;2023-10-13T03:54:56;144;139;
81998;PMS5003;71598;46.516;-122.928;2023-10-13T03:57:21;146;143;
81998;PMS5003;71598;46.516;-122.928;2023-10-13T03:59:48;140;139;
81998;PMS5003;71598;46.516;-122.928;2023-10-13T04:02:12;137;134;
81998;PMS5003;71598;46.516;-122.928;2023-10-13T04:04:38;152;146;
81998;PMS5003;71598;46.516;-122.928;2023-10-13T04:07:04;136;132;
81998;PMS5003;71598;46.516;-122.928;2023-10-13T04:09:29;140;137;
81998;PMS5003;71598;46.516;-122.928;2023-10-13T04:11:57;149;142;
81998;PMS5003;71598;46.516;-122.928;2023-10-13T04:14:19;136;132;
81998;PMS5003;71598;46.516;-122.928;2023-10-13T04:16:44;140;138;
81998;PMS5003;71598;46.516;-122.928;2023-10-13T04:19:10;136;133;
81998;PMS5003;71598;46.516;-122.928;2023-10-13T04:21:35;144;138;
81998;PMS5003;71598;46.516;-122.928;2023-10-13T04:24:01;138;132;
81998;PMS5003;71598;46.516;-122.928;2023-10-13T04:26:26;135;133;
81998;PMS5003;71598;46.516;-122.928;2023-10-13T04:28:51;124;123;
81998;PMS5003;71598;46.516;-122.928;2023-10-13T04:31:17;140;135;
81998;PMS5003;71598;46.516;-122.928;2023-10-13T04:33:42;138;134;
81998;PMS5003;71598;46.516;-122.928;2023-10-13T04:36:08;151;148;
81998;PMS5003;71598;46.516;-122.928;2023-10-13T04:38:33;148;148;
81998;PMS5003;71598;46.516;-122.928;2023-10-13T04:40:58;148;145;
81998;PMS5003;71598;46.516;-122.928;2023-10-13T04:43:25;148;145;
81998;PMS5003;71598;46.516;-122.928;2023-10-13T04:45:50;151;147;
81998;PMS5003;71598;46.516;-122.928;2023-10-13T04:48:16;151;146;
81998;PMS5003;71598;46.516;-122.928;2023-10-13T04:50:41;149;146;
81998;PMS5003;71598;46.516;-122.928;2023-10-13T04:53:06;155;151;
81998;PMS5003;71598;46.516;-122.928;2023-10-13T04:55:33;149;145;
81998;PMS5003;71598;46.516;-122.928;2023-10-13T04:57:57;157;150;
81998;PMS5003;71598;46.516;-122.928;2023-10-13T05:00:22;151;149;
81998;PMS5003;71598;46.516;-122.928;2023-10-13T05:02:48;141;135;
81998;PMS5003;71598;46.516;-122.928;2023-10-13T05:05:14;150;148;
81998;PMS5003;71598;46.516;-122.928;2023-10-13T05:07:39;158;156;
81998;PMS5003;71598;46.516;-122.928;2023-10-13T05:10:05;156;152;
81998;PMS5003;71598;46.516;-122.928;2023-10-13T05:12:30;159;156;
81998;PMS5003;71598;46.516;-122.928;2023-10-13T05:14:55;163;155;
81998;PMS5003;71598;46.516;-122.928;2023-10-13T05:17:20;164;162;
81998;PMS5003;71598;46.516;-122.928;2023-10-13T05:19:45;158;152;
81998;PMS5003;71598;46.516;-122.928;2023-10-13T05:22:11;167;161;
81998;PMS5003;71598;46.516;-122.928;2023-10-13T05:24:36;173;165;
81998;PMS5003;71598;46.516;-122.928;2023-10-13T05:27:02;161;158;
81998;PMS5003;71598;46.516;-122.928;2023-10-13T05:29:28;153;148;
81998;PMS5003;71598;46.516;-122.928;2023-10-13T05:31:53;162;156;
81998;PMS5003;71598;46.516;-122.928;2023-10-13T05:34:19;154;153;
81998;PMS5003;71598;46.516;-122.928;2023-10-13T05:36:45;161;152;
81998;PMS5003;71598;46.516;-122.928;2023-10-13T05:39:10;163;158;
81998;PMS5003;71598;46.516;-122.928;2023-10-13T05:41:35;166;164;
81998;PMS5003;71598;46.516;-122.928;2023-10-13T05:44:00;148;146;
81998;PMS5003;71598;46.516;-122.928;2023-10-13T05:46:26;164;158;
81998;PMS5003;71598;46.516;-122.928;2023-10-13T05:48:52;168;163;
81998;PMS5003;71598;46.516;-122.928;2023-10-13T05:51:17;174;170;
81998;PMS5003;71598;46.516;-122.928;2023-10-13T05:53:43;174;170;
81998;PMS5003;71598;46.516;-122.928;2023-10-13T05:56:08;176;173;
81998;PMS5003;71598;46.516;-122.928;2023-10-13T05:58:33;172;168;
81998;PMS5003;71598;46.516;-122.928;2023-10-13T06:00:59;165;160;
81998;PMS5003;71598;46.516;-122.928;2023-10-13T06:03:24;165;161;
81998;PMS5003;71598;46.516;-122.928;2023-10-13T06:05:49;155;152;
81998;PMS5003;71598;46.516;-122.928;2023-10-13T06:08:15;171;164;
81998;PMS5003;71598;46.516;-122.928;2023-10-13T06:10:44;167;163;
81998;PMS5003;71598;46.516;-122.928;2023-10-13T06:13:07;170;162;
81998;PMS5003;71598;46.516;-122.928;2023-10-13T06:15:35;160;156;
81998;PMS5003;71598;46.516;-122.928;2023-10-13T06:17:57;164;161;
81998;PMS5003;71598;46.516;-122.928;2023-10-13T06:20:23;168;161;
81998;PMS5003;71598;46.516;-122.928;2023-10-13T06:22:49;167;164;
81998;PMS5003;71598;46.516;-122.928;2023-10-13T06:25:14;165;159;
81998;PMS5003;71598;46.516;-122.928;2023-10-13T06:27:39;162;157;
81998;PMS5003;71598;46.516;-122.928;2023-10-13T06:30:04;165;160;
81998;PMS5003;71598;46.516;-122.928;2023-10-13T06:32:29;170;167;
81998;PMS5003;71598;46.516;-122.928;2023-10-13T06:34:55;168;166;
81998;PMS5003;71598;46.516;-122.928;2023-10-13T06:37:20;171;166;
81998;PMS5003;71598;46.516;-122.928;2023-10-13T06:39:45;156;151;
81998;PMS5003;71598;46.516;-122.928;2023-10-13T06:42:11;158;155;
81998;PMS5003;71598;46.516;-122.928;2023-10-13T06:44:37;160;155;
81998;PMS5003;71598;46.516;-122.928;2023-10-13T06:47:02;158;150;
81998;PMS5003;71598;46.516;-122.928;2023-10-13T06:49:27;157;156;
81998;PMS5003;71598;46.516;-122.928;2023-10-13T06:51:52;158;154;
81998;PMS5003;71598;46.516;-122.928;2023-10-13T06:54:17;161;156;
81998;PMS5003;71598;46.516;-122.928;2023-10-13T06:56:43;160;158;
81998;PMS5003;71598;46.516;-122.928;2023-10-13T06:59:08;161;154;
81998;PMS5003;71598;46.516;-122.928;2023-10-13T07:01:34;156;153;
81998;PMS5003;71598;46.516;-122.928;2023-10-13T07:03:59;158;155;
81998;PMS5003;71598;46.516;-122.928;2023-10-13T07:06:25;161;155;
81998;PMS5003;71598;46.516;-122.928;2023-10-13T07:08:50;159;157;
81998;PMS5003;71598;46.516;-122.928;2023-10-13T07:11:18;153;152;
81998;PMS5003;71598;46.516;-122.928;2023-10-13T07:13:43;160;154;
81998;PMS5003;71598;46.516;-122.928;2023-10-13T07:16:08;158;154;
81998;PMS5003;71598;46.516;-122.928;2023-10-13T07:18:33;154;149;
81998;PMS5003;71598;46.516;-122.928;2023-10-13T07:20:58;164;159;
81998;PMS5003;71598;46.516;-122.928;2023-10-13T07:23:24;147;143;
81998;PMS5003;71598;46.516;-122.928;2023-10-13T07:25:53;155;151;
81998;PMS5003;71598;46.516;-122.928;2023-10-13T07:28:15;152;146;
81998;PMS5003;71598;46.516;-122.928;2023-10-13T07:30:41;154;150;
81998;PMS5003;71598;46.516;-122.928;2023-10-13T07:33:06;158;153;
81998;PMS5003;71598;46.516;-122.928;2023-10-13T07:35:31;151;149;
81998;PMS5003;71598;46.516;-122.928;2023-10-13T07:37:57;157;155;
81998;PMS5003;71598;46.516;-122.928;2023-10-13T07:40:22;155;147;
81998;PMS5003;71598;46.516;-122.928;2023-10-13T07:42:48;150;150;
81998;PMS5003;71598;46.516;-122.928;2023-10-13T07:45:13;139;136;
81998;PMS5003;71598;46.516;-122.928;2023-10-13T07:47:38;147;145;
81998;PMS5003;71598;46.516;-122.928;2023-10-13T07:50:04;141;140;
81998;PMS5003;71598;46.516;-122.928;2023-10-13T07:52:30;157;148;
81998;PMS5003;71598;46.516;-122.928;2023-10-13T07:54:55;159;151;
81998;PMS5003;71598;46.516;-122.928;2023-10-13T07:57:20;149;141;
81998;PMS5003;71598;46.516;-122.928;2023-10-13T07:59:45;141;138;
81998;PMS5003;71598;46.516;-122.928;2023-10-13T08:02:11;137;134;
81998;PMS5003;71598;46.516;-122.928;2023-10-13T08:04:37;137;133;
81998;PMS5003;71598;46.516;-122.928;2023-10-13T08:07:03;138;136;
81998;PMS5003;71598;46.516;-122.928;2023-10-13T08:09:28;131;129;
81998;PMS5003;71598;46.516;-122.928;2023-10-13T08:11:55;141;140;
81998;PMS5003;71598;46.516;-122.928;2023-10-13T08:14:20;134;130;
81998;PMS5003;71598;46.516;-122.928;2023-10-13T08:16:45;138;135;
81998;PMS5003;71598;46.516;-122.928;2023-10-13T08:19:11;145;142;
81998;PMS5003;71598;46.516;-122.928;2023-10-13T08:21:36;143;136;
81998;PMS5003;71598;46.516;-122.928;2023-10-13T08:24:02;145;142;
81998;PMS5003;71598;46.516;-122.928;2023-10-13T08:26:28;134;131;
81998;PMS5003;71598;46.516;-122.928;2023-10-13T08:28:52;129;125;
81998;PMS5003;71598;46.516;-122.928;2023-10-13T08:31:17;139;132;
81998;PMS5003;71598;46.516;-122.928;2023-10-13T08:33:43;132;131;
81998;PMS5003;71598;46.516;-122.928;2023-10-13T08:36:08;131;128;
81998;PMS5003;71598;46.516;-122.928;2023-10-13T08:38:34;142;134;
81998;PMS5003;71598;46.516;-122.928;2023-10-13T08:40:59;131;127;
81998;PMS5003;71598;46.516;-122.928;2023-10-13T08:43:25;124;121;
81998;PMS5003;71598;46.516;-122.928;2023-10-13T08:45:50;138;136;
81998;PMS5003;71598;46.516;-122.928;2023-10-13T08:48:15;133;130;
81998;PMS5003;71598;46.516;-122.928;2023-10-13T08:50:42;131;129;
81998;PMS5003;71598;46.516;-122.928;2023-10-13T08:53:07;121;120;
81998;PMS5003;71598;46.516;-122.928;2023-10-13T08:55:33;130;125;
81998;PMS5003;71598;46.516;-122.928;2023-10-13T08:57:58;126;124;
81998;PMS5003;71598;46.516;-122.928;2023-10-13T09:00:24;124;121;
81998;PMS5003;71598;46.516;-122.928;2023-10-13T09:02:50;127;121;
81998;PMS5003;71598;46.516;-122.928;2023-10-13T09:05:15;121;118;
81998;PMS5003;71598;46.516;-122.928;2023-10-13T09:07:44;128;125;
81998;PMS5003;71598;46.516;-122.928;2023-10-13T09:10:06;126;124;
81998;PMS5003;71598;46.516;-122.928;2023-10-13T09:12:32;119;113;
81998;PMS5003;71598;46.516;-122.928;2023-10-13T09:14:58;124;121;
81998;PMS5003;71598;46.516;-122.928;2023-10-13T09:17:23;132;124;
81998;PMS5003;71598;46.516;-122.928;2023-10-13T09:19:48;115;112;
81998;PMS5003;71598;46.516;-122.928;2023-10-13T09:22:22;123;121;
81998;PMS5003;71598;46.516;-122.928;2023-10-13T09:24:40;118;115;
81998;PMS5003;71598;46.516;-122.928;2023-10-13T09:27:05;124;121;
81998;PMS5003;71598;46.516;-122.928;2023-10-13T09:29:31;122;120;
81998;PMS5003;71598;46.516;-122.928;2023-10-13T09:32:00;113;111;
81998;PMS5003;71598;46.516;-122.928;2023-10-13T09:34:21;118;114;
81998;PMS5003;71598;46.516;-122.928;2023-10-13T09:36:46;112;109;
81998;PMS5003;71598;46.516;-122.928;2023-10-13T09:39:11;115;114;
81998;PMS5003;71598;46.516;-122.928;2023-10-13T09:41:37;119;112;
81998;PMS5003;71598;46.516;-122.928;2023-10-13T09:44:03;110;105;
81998;PMS5003;71598;46.516;-122.928;2023-10-13T09:46:29;115;111;
81998;PMS5003;71598;46.516;-122.928;2023-10-13T09:48:56;110;107;
81998;PMS5003;71598;46.516;-122.928;2023-10-13T09:51:20;119;115;
81998;PMS5003;71598;46.516;-122.928;2023-10-13T09:53:51;107;102;
81998;PMS5003;71598;46.516;-122.928;2023-10-13T09:56:12;111;109;
81998;PMS5003;71598;46.516;-122.928;2023-10-13T09:58:36;107;104;
81998;PMS5003;71598;46.516;-122.928;2023-10-13T10:01:01;110;109;
81998;PMS5003;71598;46.516;-122.928;2023-10-13T10:03:26;118;113;
81998;PMS5003;71598;46.516;-122.928;2023-10-13T10:06:00;107;102;
81998;PMS5003;71598;46.516;-122.928;2023-10-13T10:08:24;107;104;
81998;PMS5003;71598;46.516;-122.928;2023-10-13T10:10:56;114;108;
81998;PMS5003;71598;46.516;-122.928;2023-10-13T10:13:11;102;100;
81998;PMS5003;71598;46.516;-122.928;2023-10-13T10:15:34;101;100;
81998;PMS5003;71598;46.516;-122.928;2023-10-13T10:18:00;106;104;
81998;PMS5003;71598;46.516;-122.928;2023-10-13T10:20:32;102;99;
81998;PMS5003;71598;46.516;-122.928;2023-10-13T10:22:57;111;110;
81998;PMS5003;71598;46.516;-122.928;2023-10-13T10:25:15;104;101;
81998;PMS5003;71598;46.516;-122.928;2023-10-13T10:27:41;101;101;
81998;PMS5003;71598;46.516;-122.928;2023-10-13T10:30:07;102;100;
81998;PMS5003;71598;46.516;-122.928;2023-10-13T10:32:32;100;99;
81998;PMS5003;71598;46.516;-122.928;2023-10-13T10:35:02;104;98;
81998;PMS5003;71598;46.516;-122.928;2023-10-13T10:37:22;103;101;
81998;PMS5003;71598;46.516;-122.928;2023-10-13T10:39:48;99;95;
81998;PMS5003;71598;46.516;-122.928;2023-10-13T10:42:14;96;93;
81998;PMS5003;71598;46.516;-122.928;2023-10-13T10:44:40;101;97;
81998;PMS5003;71598;46.516;-122.928;2023-10-13T10:47:09;92;92;
81998;PMS5003;71598;46.516;-122.928;2023-10-13T10:49:30;92;90;
81998;PMS5003;71598;46.516;-122.928;2023-10-13T10:51:57;93;89;
81998;PMS5003;71598;46.516;-122.928;2023-10-13T10:54:21;94;92;
81998;PMS5003;71598;46.516;-122.928;2023-10-13T10:56:46;91;90;
81998;PMS5003;71598;46.516;-122.928;2023-10-13T10:59:11;87;86;
81998;PMS5003;71598;46.516;-122.928;2023-10-13T11:01:42;87;86;
81998;PMS5003;71598;46.516;-122.928;2023-10-13T11:04:02;84;83;
81998;PMS5003;71598;46.516;-122.928;2023-10-13T11:06:27;89;87;
81998;PMS5003;71598;46.516;-122.928;2023-10-13T11:09:08;82;81;
81998;PMS5003;71598;46.516;-122.928;2023-10-13T11:11:28;86;85;
81998;PMS5003;71598;46.516;-122.928;2023-10-13T11:13:45;82;79;
81998;PMS5003;71598;46.516;-122.928;2023-10-13T11:16:08;82;80;
81998;PMS5003;71598;46.516;-122.928;2023-10-13T11:18:35;81;80;
81998;PMS5003;71598;46.516;-122.928;2023-10-13T11:20:59;82;80;
81998;PMS5003;71598;46.516;-122.928;2023-10-13T11:23:24;85;84;
81998;PMS5003;71598;46.516;-122.928;2023-10-13T11:25:56;81;80;
81998;PMS5003;71598;46.516;-122.928;2023-10-13T11:28:16;88;87;
81998;PMS5003;71598;46.516;-122.928;2023-10-13T11:30:41;79;78;
81998;PMS5003;71598;46.516;-122.928;2023-10-13T11:33:07;79;79;
81998;PMS5003;71598;46.516;-122.928;2023-10-13T11:35:32;82;80;
81998;PMS5003;71598;46.516;-122.928;2023-10-13T11:37:56;74;72;
81998;PMS5003;71598;46.516;-122.928;2023-10-13T11:40:22;73;73;
81998;PMS5003;71598;46.516;-122.928;2023-10-13T11:42:47;68;65;
81998;PMS5003;71598;46.516;-122.928;2023-10-13T11:45:13;77;76;
81998;PMS5003;71598;46.516;-122.928;2023-10-13T11:47:38;75;74;
81998;PMS5003;71598;46.516;-122.928;2023-10-13T11:50:03;76;74;
81998;PMS5003;71598;46.516;-122.928;2023-10-13T11:52:28;68;68;
81998;PMS5003;71598;46.516;-122.928;2023-10-13T11:54:54;74;71;
81998;PMS5003;71598;46.516;-122.928;2023-10-13T11:57:19;73;70;
81998;PMS5003;71598;46.516;-122.928;2023-10-13T11:59:44;68;67;
81998;PMS5003;71598;46.516;-122.928;2023-10-13T12:02:11;74;72;
81998;PMS5003;71598;46.516;-122.928;2023-10-13T12:04:36;72;70;
81998;PMS5003;71598;46.516;-122.928;2023-10-13T12:07:01;73;72;
81998;PMS5003;71598;46.516;-122.928;2023-10-13T12:09:27;70;67;
81998;PMS5003;71598;46.516;-122.928;2023-10-13T12:11:53;69;68;
81998;PMS5003;71598;46.516;-122.928;2023-10-13T12:14:20;67;67;
81998;PMS5003;71598;46.516;-122.928;2023-10-13T12:16:44;70;68;
81998;PMS5003;71598;46.516;-122.928;2023-10-13T12:19:12;66;65;
81998;PMS5003;71598;46.516;-122.928;2023-10-13T12:21:34;62;61;
81998;PMS5003;71598;46.516;-122.928;2023-10-13T12:23:59;63;61;
81998;PMS5003;71598;46.516;-122.928;2023-10-13T12:26:25;59;57;
81998;PMS5003;71598;46.516;-122.928;2023-10-13T12:28:50;59;58;
81998;PMS5003;71598;46.516;-122.928;2023-10-13T12:31:16;65;61;
81998;PMS5003;71598;46.516;-122.928;2023-10-13T12:33:41;58;57;
81998;PMS5003;71598;46.516;-122.928;2023-10-13T12:36:07;60;59;
81998;PMS5003;71598;46.516;-122.928;2023-10-13T12:38:33;63;62;
81998;PMS5003;71598;46.516;-122.928;2023-10-13T12:40:58;58;57;
81998;PMS5003;71598;46.516;-122.928;2023-10-13T12:43:24;53;52;
81998;PMS5003;71598;46.516;-122.928;2023-10-13T12:45:50;54;54;
81998;PMS5003;71598;46.516;-122.928;2023-10-13T12:48:14;55;53;
81998;PMS5003;71598;46.516;-122.928;2023-10-13T12:50:39;62;58;
81998;PMS5003;71598;46.516;-122.928;2023-10-13T12:53:05;49;49;
81998;PMS5003;71598;46.516;-122.928;2023-10-13T12:55:30;49;48;
81998;PMS5003;71598;46.516;-122.928;2023-10-13T12:57:55;52;51;
81998;PMS5003;71598;46.516;-122.928;2023-10-13T13:00:20;52;50;
81998;PMS5003;71598;46.516;-122.928;2023-10-13T13:02:46;60;58;
81998;PMS5003;71598;46.516;-122.928;2023-10-13T13:05:11;47;46;
81998;PMS5003;71598;46.516;-122.928;2023-10-13T13:07:37;53;53;
81998;PMS5003;71598;46.516;-122.928;2023-10-13T13:10:02;52;51;
81998;PMS5003;71598;46.516;-122.928;2023-10-13T13:12:28;48;48;
81998;PMS5003;71598;46.516;-122.928;2023-10-13T13:14:54;48;48;
81998;PMS5003;71598;46.516;-122.928;2023-10-13T13:17:19;47;45;
81998;PMS5003;71598;46.516;-122.928;2023-10-13T13:19:45;48;45;
81998;PMS5003;71598;46.516;-122.928;2023-10-13T13:22:10;45;40;
81998;PMS5003;71598;46.516;-122.928;2023-10-13T13:24:35;39;36;
81998;PMS5003;71598;46.516;-122.928;2023-10-13T13:27:00;44;43;
81998;PMS5003;71598;46.516;-122.928;2023-10-13T13:29:26;44;44;
81998;PMS5003;71598;46.516;-122.928;2023-10-13T13:31:51;40;39;
81998;PMS5003;71598;46.516;-122.928;2023-10-13T13:34:16;42;42;
81998;PMS5003;71598;46.516;-122.928;2023-10-13T13:36:41;38;37;
81998;PMS5003;71598;46.516;-122.928;2023-10-13T13:39:07;37;37;
81998;PMS5003;71598;46.516;-122.928;2023-10-13T13:41:32;33;33;
81998;PMS5003;71598;46.516;-122.928;2023-10-13T13:43:58;30;30;
81998;PMS5003;71598;46.516;-122.928;2023-10-13T13:46:24;33;32;
81998;PMS5003;71598;46.516;-122.928;2023-10-13T13:48:49;34;34;
81998;PMS5003;71598;46.516;-122.928;2023-10-13T13:51:14;32;32;
81998;PMS5003;71598;46.516;-122.928;2023-10-13T13:53:40;29;28;
81998;PMS5003;71598;46.516;-122.928;2023-10-13T13:56:05;31;30;
81998;PMS5003;71598;46.516;-122.928;2023-10-13T13:58:31;25;25;
81998;PMS5003;71598;46.516;-122.928;2023-10-13T14:01:00;34;34;
81998;PMS5003;71598;46.516;-122.928;2023-10-13T14:03:22;29;29;
81998;PMS5003;71598;46.516;-122.928;2023-10-13T14:05:48;27;27;
81998;PMS5003;71598;46.516;-122.928;2023-10-13T14:08:13;28;28;
81998;PMS5003;71598;46.516;-122.928;2023-10-13T14:10:38;26;26;
81998;PMS5003;71598;46.516;-122.928;2023-10-13T14:13:04;30;28;
81998;PMS5003;71598;46.516;-122.928;2023-10-13T14:15:30;29;29;
81998;PMS5003;71598;46.516;-122.928;2023-10-13T14:17:56;29;28;
81998;PMS5003;71598;46.516;-122.928;2023-10-13T14:20:20;24;24;
81998;PMS5003;71598;46.516;-122.928;2023-10-13T14:22:46;24;24;
81998;PMS5003;71598;46.516;-122.928;2023-10-13T14:25:12;22;21;
81998;PMS5003;71598;46.516;-122.928;2023-10-13T14:27:37;26;26;
81998;PMS5003;71598;46.516;-122.928;2023-10-13T14:30:03;22;22;
81998;PMS5003;71598;46.516;-122.928;2023-10-13T14:32:28;23;22;
81998;PMS5003;71598;46.516;-122.928;2023-10-13T14:34:53;23;22;
81998;PMS5003;71598;46.516;-122.928;2023-10-13T14:37:18;22;22;
81998;PMS5003;71598;46.516;-122.928;2023-10-13T14:39:44;23;22;
81998;PMS5003;71598;46.516;-122.928;2023-10-13T14:42:09;19;19;
81998;PMS5003;71598;46.516;-122.928;2023-10-13T14:44:35;18;18;
81998;PMS5003;71598;46.516;-122.928;2023-10-13T14:47:00;19;19;
81998;PMS5003;71598;46.516;-122.928;2023-10-13T14:49:25;21;21;
81998;PMS5003;71598;46.516;-122.928;2023-10-13T14:51:51;17;17;
81998;PMS5003;71598;46.516;-122.928;2023-10-13T14:54:16;20;20;
81998;PMS5003;71598;46.516;-122.928;2023-10-13T14:56:42;19;18;
81998;PMS5003;71598;46.516;-122.928;2023-10-13T14:59:07;17;17;
81998;PMS5003;71598;46.516;-122.928;2023-10-13T15:01:32;21;21;
81998;PMS5003;71598;46.516;-122.928;2023-10-13T15:03:58;20;19;